Time;durP1;ratioP1;P1;durP2;ratioP2;P2;SDS_P1;SDS_P2;PMS_P1;PMS_P2;Temp;Humidity;BMP_temperature;BMP_pressure;BME280_temperature;BME280_humidity;BME280_pressure;Samples;Min_cycle;Max_cycle;Signal;HPM_P1;HPM_P2
2023/08/28 00:00:42;;;;;;;4.88;2.28;;;;;;;;;;5033519;28;20084;-78
2023/08/28 00:03:08;;;;;;;6.20;2.55;;;;;;;;;;5001571;28;20494;-77
2023/08/28 00:05:35;;;;;;;4.70;2.15;;;;;;;;;;4998713;28;20124;-78
2023/08/28 00:08:01;;;;;;;7.25;2.55;;;;;;;;;;4995025;28;20128;-79
2023/08/28 00:10:27;;;;;;;7.57;2.60;;;;;;;;;;4995635;28;20042;-79
2023/08/28 00:12:53;;;;;;;6.82;2.45;;;;;;;;;;5012416;28;20081;-79
2023/08/28 00:15:19;;;;;;;5.03;2.53;;;;;;;;;;5012211;28;20157;-79
2023/08/28 00:17:46;;;;;;;6.10;2.47;;;;;;;;;;4978365;28;20050;-79
2023/08/28 00:20:12;;;;;;;4.07;2.28;;;;;;;;;;4994755;28;20049;-79
2023/08/28 00:22:39;;;;;;;4.40;2.40;;;;;;;;;;4994458;28;20068;-79
2023/08/28 00:25:08;;;;;;;6.00;2.33;;;;;;;;;;4994275;28;20405;-79
2023/08/28 00:27:35;;;;;;;6.35;2.40;;;;;;;;;;5000535;28;20129;-79
2023/08/28 00:30:01;;;;;;;6.47;2.47;;;;;;;;;;4983671;28;20494;-78
2023/08/28 00:32:27;;;;;;;2.83;2.03;;;;;;;;;;4997316;28;20073;-79
2023/08/28 00:34:54;;;;;;;5.72;2.55;;;;;;;;;;5015237;28;20042;-78
2023/08/28 00:37:20;;;;;;;5.93;2.70;;;;;;;;;;4997808;28;20085;-79
2023/08/28 00:39:46;;;;;;;5.43;2.40;;;;;;;;;;5015426;28;20049;-79
2023/08/28 00:42:12;;;;;;;4.80;2.40;;;;;;;;;;5015406;28;20056;-79
2023/08/28 00:44:39;;;;;;;5.05;2.47;;;;;;;;;;5015443;28;20052;-79
2023/08/28 00:47:06;;;;;;;5.85;2.63;;;;;;;;;;4981538;28;20089;-79
2023/08/28 00:49:32;;;;;;;4.43;2.30;;;;;;;;;;5015390;28;20045;-79
2023/08/28 00:51:59;;;;;;;5.75;2.58;;;;;;;;;;5014975;28;20056;-79
2023/08/28 00:54:25;;;;;;;6.25;2.58;;;;;;;;;;5015160;28;20042;-79
2023/08/28 00:56:54;;;;;;;5.00;2.50;;;;;;;;;;4997900;28;20483;-79
2023/08/28 00:59:20;;;;;;;5.60;2.30;;;;;;;;;;4997631;28;20050;-79
2023/08/28 01:01:46;;;;;;;7.88;2.50;;;;;;;;;;4997818;28;20077;-79
2023/08/28 01:04:12;;;;;;;5.68;2.30;;;;;;;;;;5014885;28;20050;-78
2023/08/28 01:07:02;;;;;;;4.40;2.20;;;;;;;;;;4981736;28;20050;-79
2023/08/28 01:09:32;;;;;;;6.35;2.30;;;;;;;;;;5015370;28;20132;-78
2023/08/28 01:12:01;;;;;;;5.22;2.13;;;;;;;;;;4981171;28;20053;-78
2023/08/28 01:14:28;;;;;;;5.88;2.17;;;;;;;;;;4997492;28;20041;-79
2023/08/28 01:17:06;;;;;;;5.03;2.15;;;;;;;;;;5015120;28;20393;-79
2023/08/28 01:19:32;;;;;;;4.93;2.28;;;;;;;;;;5014682;28;20104;-78
2023/08/28 01:22:07;;;;;;;4.88;2.17;;;;;;;;;;4997405;28;20455;-78
2023/08/28 01:24:33;;;;;;;7.50;2.20;;;;;;;;;;4980698;28;20045;-78
2023/08/28 01:26:59;;;;;;;5.18;2.00;;;;;;;;;;5007251;28;20046;-78
2023/08/28 01:29:27;;;;;;;6.47;2.47;;;;;;;;;;4997739;28;20046;-78
2023/08/28 01:31:53;;;;;;;6.35;2.28;;;;;;;;;;4994417;28;20038;-78
2023/08/28 01:34:19;;;;;;;5.47;2.30;;;;;;;;;;5013935;28;20078;-78
2023/08/28 01:36:48;;;;;;;6.60;2.28;;;;;;;;;;5014465;28;20128;-78
2023/08/28 01:39:18;;;;;;;4.30;2.28;;;;;;;;;;5014056;28;20117;-78
2023/08/28 01:41:46;;;;;;;5.00;2.20;;;;;;;;;;5013360;28;20529;-79
2023/08/28 01:44:12;;;;;;;5.20;2.20;;;;;;;;;;5013967;28;20133;-79
2023/08/28 01:46:38;;;;;;;4.45;2.20;;;;;;;;;;5014558;28;20092;-79
2023/08/28 01:49:05;;;;;;;6.47;2.60;;;;;;;;;;5014278;28;20501;-79
2023/08/28 01:51:31;;;;;;;4.78;2.25;;;;;;;;;;4996789;28;20088;-79
2023/08/28 01:53:57;;;;;;;3.80;2.30;;;;;;;;;;4996535;28;20073;-78
2023/08/28 01:56:24;;;;;;;6.15;2.20;;;;;;;;;;5014233;28;20038;-79
2023/08/28 01:58:54;;;;;;;5.70;2.60;;;;;;;;;;5013860;28;20042;-79
2023/08/28 02:01:21;;;;;;;6.30;2.42;;;;;;;;;;4996871;28;20076;-79
2023/08/28 02:03:47;;;;;;;5.38;2.42;;;;;;;;;;5013650;28;20466;-79
2023/08/28 02:06:13;;;;;;;5.05;2.30;;;;;;;;;;4996742;28;20243;-79
2023/08/28 02:08:43;;;;;;;4.13;2.53;;;;;;;;;;4980157;28;20044;-79
2023/08/28 02:11:09;;;;;;;6.88;2.60;;;;;;;;;;5011990;28;20203;-79
2023/08/28 02:13:35;;;;;;;4.53;2.60;;;;;;;;;;4994934;28;20045;-79
2023/08/28 02:16:02;;;;;;;5.32;2.38;;;;;;;;;;5013745;28;20077;-79
2023/08/28 02:18:28;;;;;;;4.05;2.53;;;;;;;;;;4995539;28;20041;-79
2023/08/28 02:20:55;;;;;;;5.30;2.22;;;;;;;;;;5013687;28;20506;-78
2023/08/28 02:23:21;;;;;;;7.53;2.50;;;;;;;;;;4994905;28;20038;-78
2023/08/28 02:25:48;;;;;;;5.55;2.67;;;;;;;;;;5013543;28;20050;-79
2023/08/28 02:28:14;;;;;;;7.28;2.50;;;;;;;;;;4996320;28;20046;-79
2023/08/28 02:30:40;;;;;;;3.70;2.30;;;;;;;;;;5010938;28;20050;-79
2023/08/28 02:33:06;;;;;;;6.38;2.80;;;;;;;;;;4995018;28;20426;-79
2023/08/28 02:35:33;;;;;;;5.75;2.60;;;;;;;;;;5012714;28;20046;-79
2023/08/28 02:37:59;;;;;;;4.95;2.50;;;;;;;;;;5012771;28;20045;-79
2023/08/28 02:40:25;;;;;;;5.28;2.50;;;;;;;;;;5013149;28;20068;-79
2023/08/28 02:42:51;;;;;;;5.60;2.50;;;;;;;;;;5012730;28;20120;-79
2023/08/28 02:45:17;;;;;;;7.18;2.80;;;;;;;;;;4995338;28;20049;-77
2023/08/28 02:47:43;;;;;;;5.93;2.67;;;;;;;;;;5013425;28;20042;-77
2023/08/28 02:50:10;;;;;;;6.60;2.63;;;;;;;;;;4997036;28;20548;-77
2023/08/28 02:52:36;;;;;;;5.57;2.40;;;;;;;;;;5012369;28;20225;-79
2023/08/28 02:55:02;;;;;;;4.88;2.42;;;;;;;;;;4994642;28;20141;-78
2023/08/28 02:57:28;;;;;;;4.00;2.55;;;;;;;;;;4978369;28;20050;-78
2023/08/28 02:59:54;;;;;;;6.45;2.40;;;;;;;;;;5012965;28;20053;-78
2023/08/28 03:02:20;;;;;;;5.85;2.65;;;;;;;;;;4995174;28;20049;-78
2023/08/28 03:04:46;;;;;;;7.45;2.70;;;;;;;;;;5010050;28;20053;-78
2023/08/28 03:07:12;;;;;;;4.65;2.47;;;;;;;;;;5031176;28;20516;-78
2023/08/28 03:09:38;;;;;;;8.38;2.53;;;;;;;;;;5014328;28;20037;-79
2023/08/28 03:12:04;;;;;;;4.20;2.60;;;;;;;;;;5032493;28;20107;-79
2023/08/28 03:14:31;;;;;;;6.88;2.60;;;;;;;;;;5032146;28;20049;-79
2023/08/28 03:16:57;;;;;;;5.68;2.67;;;;;;;;;;5031783;28;20041;-79
2023/08/28 03:19:23;;;;;;;6.57;3.00;;;;;;;;;;4997706;28;20053;-79
2023/08/28 03:21:49;;;;;;;5.43;2.60;;;;;;;;;;5032599;28;20064;-79
2023/08/28 03:24:15;;;;;;;4.47;2.80;;;;;;;;;;5032250;28;20045;-79
2023/08/28 03:26:42;;;;;;;6.57;2.60;;;;;;;;;;5034478;28;20076;-77
2023/08/28 03:29:08;;;;;;;7.45;2.90;;;;;;;;;;5037516;28;20101;-77
2023/08/28 03:31:34;;;;;;;6.13;2.80;;;;;;;;;;5032967;28;20049;-77
2023/08/28 03:34:00;;;;;;;4.38;3.00;;;;;;;;;;5031989;28;20080;-78
2023/08/28 03:36:26;;;;;;;7.43;2.65;;;;;;;;;;5032141;28;20073;-78
2023/08/28 03:38:52;;;;;;;6.35;2.90;;;;;;;;;;5032328;28;20041;-79
2023/08/28 03:41:18;;;;;;;5.35;2.90;;;;;;;;;;5032156;28;20058;-79
2023/08/28 03:43:44;;;;;;;5.47;3.30;;;;;;;;;;5032130;28;20064;-79
2023/08/28 03:46:10;;;;;;;5.75;2.90;;;;;;;;;;5032784;28;20103;-79
2023/08/28 03:48:36;;;;;;;4.45;2.72;;;;;;;;;;5032416;28;20073;-79
2023/08/28 03:51:02;;;;;;;4.80;2.90;;;;;;;;;;5032580;28;20071;-79
2023/08/28 03:53:28;;;;;;;4.40;2.88;;;;;;;;;;5014315;28;20056;-79
2023/08/28 03:55:55;;;;;;;6.18;3.20;;;;;;;;;;5014706;28;20045;-79
2023/08/28 03:58:22;;;;;;;5.65;3.25;;;;;;;;;;5013837;28;20045;-79
2023/08/28 04:00:48;;;;;;;5.57;3.30;;;;;;;;;;5014519;28;20116;-79
2023/08/28 04:03:15;;;;;;;6.53;3.08;;;;;;;;;;5031428;28;20088;-79
2023/08/28 04:05:42;;;;;;;8.75;3.38;;;;;;;;;;5034840;28;20054;-79
2023/08/28 04:08:08;;;;;;;4.95;3.30;;;;;;;;;;5035527;28;20048;-79
2023/08/28 04:10:35;;;;;;;6.25;3.25;;;;;;;;;;5036123;28;20385;-79
2023/08/28 04:13:01;;;;;;;5.88;3.50;;;;;;;;;;5001252;28;20081;-79
2023/08/28 04:15:28;;;;;;;5.90;3.50;;;;;;;;;;5035193;28;20132;-79
2023/08/28 04:17:54;;;;;;;5.55;3.50;;;;;;;;;;5035633;28;20052;-79
2023/08/28 04:20:20;;;;;;;6.30;3.63;;;;;;;;;;5017664;28;20049;-79
2023/08/28 04:22:46;;;;;;;6.78;3.60;;;;;;;;;;5017687;28;20462;-78
2023/08/28 04:25:13;;;;;;;6.13;3.60;;;;;;;;;;5017574;28;20046;-78
2023/08/28 04:27:40;;;;;;;5.88;3.47;;;;;;;;;;5034968;28;20103;-79
2023/08/28 04:30:07;;;;;;;6.13;3.85;;;;;;;;;;5034954;28;20088;-79
2023/08/28 04:32:33;;;;;;;6.25;3.42;;;;;;;;;;5033508;28;20044;-79
2023/08/28 04:34:59;;;;;;;6.85;3.67;;;;;;;;;;5034678;28;20088;-78
2023/08/28 04:37:26;;;;;;;5.57;3.40;;;;;;;;;;5034933;28;20124;-78
2023/08/28 04:39:52;;;;;;;5.50;3.53;;;;;;;;;;5035526;28;20477;-78
2023/08/28 04:42:19;;;;;;;4.95;3.47;;;;;;;;;;5017208;28;20063;-78
2023/08/28 04:44:45;;;;;;;5.68;3.40;;;;;;;;;;5015121;28;20126;-78
2023/08/28 04:47:13;;;;;;;4.93;3.10;;;;;;;;;;5017002;28;20048;-79
2023/08/28 04:49:39;;;;;;;6.15;3.55;;;;;;;;;;5035391;28;20046;-78
2023/08/28 04:52:05;;;;;;;5.43;3.35;;;;;;;;;;5034451;28;20052;-79
2023/08/28 04:54:32;;;;;;;6.72;3.30;;;;;;;;;;5034352;28;20049;-79
2023/08/28 04:56:58;;;;;;;5.32;3.47;;;;;;;;;;5017208;28;20049;-79
2023/08/28 04:59:25;;;;;;;5.78;3.83;;;;;;;;;;5033998;28;20042;-78
2023/08/28 05:01:51;;;;;;;5.60;3.45;;;;;;;;;;5017343;28;20142;-78
2023/08/28 05:04:18;;;;;;;5.78;3.45;;;;;;;;;;5034142;28;20486;-78
2023/08/28 05:06:44;;;;;;;8.40;3.78;;;;;;;;;;5034429;28;20128;-79
2023/08/28 05:09:12;;;;;;;6.13;3.65;;;;;;;;;;5016453;28;20084;-78
2023/08/28 05:11:38;;;;;;;5.85;3.65;;;;;;;;;;5033829;28;20490;-78
2023/08/28 05:14:05;;;;;;;7.05;3.40;;;;;;;;;;5016124;28;20045;-79
2023/08/28 05:16:32;;;;;;;6.35;3.90;;;;;;;;;;5033892;28;20128;-79
2023/08/28 05:18:58;;;;;;;6.30;3.63;;;;;;;;;;4999223;28;20048;-79
2023/08/28 05:21:24;;;;;;;5.80;3.58;;;;;;;;;;5034269;28;20060;-79
2023/08/28 05:23:50;;;;;;;7.00;3.55;;;;;;;;;;5033128;28;20401;-79
2023/08/28 05:26:16;;;;;;;5.60;3.60;;;;;;;;;;5033309;28;20456;-79
2023/08/28 05:28:42;;;;;;;6.45;3.53;;;;;;;;;;5027211;28;20075;-79
2023/08/28 05:31:08;;;;;;;5.50;3.53;;;;;;;;;;5015883;28;20107;-79
2023/08/28 05:33:36;;;;;;;5.22;3.70;;;;;;;;;;5033669;28;20041;-79
2023/08/28 05:36:02;;;;;;;5.18;3.40;;;;;;;;;;5034105;28;20083;-79
2023/08/28 05:38:29;;;;;;;7.82;4.00;;;;;;;;;;5015407;28;20045;-79
2023/08/28 05:40:55;;;;;;;5.50;3.75;;;;;;;;;;5016222;28;20482;-79
2023/08/28 05:43:21;;;;;;;5.45;3.85;;;;;;;;;;5015739;28;20045;-78
2023/08/28 05:45:47;;;;;;;5.97;3.80;;;;;;;;;;5016021;28;20046;-79
2023/08/28 05:48:13;;;;;;;7.35;4.10;;;;;;;;;;5033736;28;20049;-79
2023/08/28 05:50:41;;;;;;;6.75;4.00;;;;;;;;;;5034295;28;20037;-78
2023/08/28 05:53:07;;;;;;;6.13;3.95;;;;;;;;;;5016270;28;20045;-78
2023/08/28 05:55:34;;;;;;;5.00;3.55;;;;;;;;;;5016254;28;20041;-78
2023/08/28 05:58:00;;;;;;;6.95;3.92;;;;;;;;;;5033568;28;20084;-79
2023/08/28 06:00:26;;;;;;;7.22;3.80;;;;;;;;;;5034419;28;20180;-78
2023/08/28 06:02:52;;;;;;;6.15;3.72;;;;;;;;;;5015771;28;20045;-78
2023/08/28 06:05:18;;;;;;;6.30;3.38;;;;;;;;;;5033399;28;20068;-79
2023/08/28 06:07:44;;;;;;;6.30;3.97;;;;;;;;;;5033337;28;20151;-79
2023/08/28 06:10:12;;;;;;;8.88;3.83;;;;;;;;;;5015896;28;20044;-78
2023/08/28 06:12:38;;;;;;;6.15;3.70;;;;;;;;;;5015100;28;20093;-78
2023/08/28 06:15:05;;;;;;;7.05;3.80;;;;;;;;;;5015324;28;20037;-78
2023/08/28 06:17:31;;;;;;;8.40;3.90;;;;;;;;;;5015249;28;20494;-75
2023/08/28 06:19:57;;;;;;;7.05;3.90;;;;;;;;;;5014870;28;20045;-75
2023/08/28 06:22:23;;;;;;;6.38;3.80;;;;;;;;;;5031711;28;20372;-75
2023/08/28 06:24:52;;;;;;;4.93;3.50;;;;;;;;;;5032044;28;20495;-75
2023/08/28 06:27:18;;;;;;;5.68;4.00;;;;;;;;;;4994833;28;20096;-75
2023/08/28 06:29:44;;;;;;;11.05;3.80;;;;;;;;;;4982628;28;20047;-75
2023/08/28 06:32:11;;;;;;;5.53;3.58;;;;;;;;;;5014897;28;20052;-75
2023/08/28 06:34:37;;;;;;;6.00;3.35;;;;;;;;;;5032821;28;20057;-75
2023/08/28 06:37:03;;;;;;;7.80;3.35;;;;;;;;;;5032951;28;20132;-75
2023/08/28 06:39:29;;;;;;;5.45;3.53;;;;;;;;;;5015318;28;20038;-75
2023/08/28 06:41:55;;;;;;;7.20;3.33;;;;;;;;;;5033186;28;20056;-74
2023/08/28 06:44:21;;;;;;;4.90;3.28;;;;;;;;;;5015664;28;20041;-74
2023/08/28 06:46:48;;;;;;;4.72;2.95;;;;;;;;;;5022860;28;20046;-75
2023/08/28 06:49:14;;;;;;;6.65;3.03;;;;;;;;;;5018725;28;20114;-75
2023/08/28 06:51:40;;;;;;;6.75;3.00;;;;;;;;;;4998591;28;20049;-75
2023/08/28 06:54:06;;;;;;;5.10;2.70;;;;;;;;;;5014276;28;20117;-75
2023/08/28 06:56:32;;;;;;;7.03;2.58;;;;;;;;;;5015124;28;20125;-76
2023/08/28 06:58:58;;;;;;;4.75;2.40;;;;;;;;;;5032438;28;20041;-74
2023/08/28 07:01:24;;;;;;;5.78;2.28;;;;;;;;;;5015173;28;20053;-75
2023/08/28 07:03:50;;;;;;;4.78;2.05;;;;;;;;;;5032331;28;20076;-75
2023/08/28 07:06:18;;;;;;;6.45;1.95;;;;;;;;;;5032328;28;20053;-75
2023/08/28 07:08:44;;;;;;;5.22;2.15;;;;;;;;;;5014308;28;20037;-75
2023/08/28 07:11:10;;;;;;;4.68;2.15;;;;;;;;;;5015625;28;20115;-75
2023/08/28 07:13:37;;;;;;;5.32;2.10;;;;;;;;;;5032249;28;20049;-75
2023/08/28 07:16:03;;;;;;;6.05;2.10;;;;;;;;;;5032870;28;20045;-75
2023/08/28 07:18:29;;;;;;;8.35;2.30;;;;;;;;;;5014118;28;20049;-75
2023/08/28 07:20:55;;;;;;;4.20;1.90;;;;;;;;;;5032866;28;20100;-76
2023/08/28 07:23:22;;;;;;;5.60;1.92;;;;;;;;;;5031866;28;20041;-75
2023/08/28 07:25:48;;;;;;;5.90;2.00;;;;;;;;;;5015049;28;20397;-76
2023/08/28 07:28:14;;;;;;;7.63;2.47;;;;;;;;;;5014081;28;20052;-75
2023/08/28 07:30:41;;;;;;;3.38;1.90;;;;;;;;;;5014606;28;20176;-75
2023/08/28 07:33:08;;;;;;;3.72;2.30;;;;;;;;;;5014430;28;20080;-75
2023/08/28 07:35:35;;;;;;;4.93;2.53;;;;;;;;;;5032145;28;20128;-76
2023/08/28 07:38:05;;;;;;;15.05;3.17;;;;;;;;;;5031996;28;20184;-74
2023/08/28 07:40:31;;;;;;;5.90;2.70;;;;;;;;;;5038014;28;20045;-74
2023/08/28 07:42:57;;;;;;;6.22;2.50;;;;;;;;;;5038374;28;20124;-75
2023/08/28 07:45:24;;;;;;;6.32;2.30;;;;;;;;;;5038555;28;20045;-75
2023/08/28 07:47:50;;;;;;;6.93;2.20;;;;;;;;;;5021070;28;20422;-76
2023/08/28 07:50:16;;;;;;;5.53;2.50;;;;;;;;;;5020931;28;20046;-75
2023/08/28 07:52:43;;;;;;;5.97;2.25;;;;;;;;;;5037992;28;19925;-76
2023/08/28 07:55:10;;;;;;;6.80;2.00;;;;;;;;;;5020789;28;20041;-76
2023/08/28 07:57:36;;;;;;;3.40;1.73;;;;;;;;;;5038412;28;20159;-75
2023/08/28 08:00:07;;;;;;;4.57;1.80;;;;;;;;;;5038732;28;20124;-75
2023/08/28 08:02:33;;;;;;;5.80;1.90;;;;;;;;;;5038207;28;20399;-75
2023/08/28 08:04:59;;;;;;;4.55;2.00;;;;;;;;;;5038669;28;20084;-75
2023/08/28 08:07:25;;;;;;;4.20;1.83;;;;;;;;;;5038326;28;20041;-76
2023/08/28 08:09:51;;;;;;;6.53;1.90;;;;;;;;;;5038334;28;20041;-78
2023/08/28 08:12:18;;;;;;;4.85;1.92;;;;;;;;;;5038684;28;20045;-80
2023/08/28 08:14:44;;;;;;;4.80;2.10;;;;;;;;;;5004218;28;20537;-80
2023/08/28 08:17:10;;;;;;;5.00;1.85;;;;;;;;;;5038326;28;20045;-79
2023/08/28 08:19:36;;;;;;;3.45;1.98;;;;;;;;;;5038302;28;20158;-79
2023/08/28 08:22:02;;;;;;;3.15;1.60;;;;;;;;;;5038215;28;20046;-79
2023/08/28 08:24:28;;;;;;;4.18;1.92;;;;;;;;;;5038130;28;20045;-79
2023/08/28 08:26:56;;;;;;;4.80;1.90;;;;;;;;;;5032353;28;20049;-79
2023/08/28 08:29:22;;;;;;;5.07;2.10;;;;;;;;;;5000840;28;20049;-79
2023/08/28 08:31:50;;;;;;;3.95;2.05;;;;;;;;;;5018814;28;20041;-79
2023/08/28 08:34:16;;;;;;;5.47;2.00;;;;;;;;;;4984901;28;20046;-79
2023/08/28 08:36:42;;;;;;;4.97;1.75;;;;;;;;;;5038702;28;20049;-78
2023/08/28 08:39:08;;;;;;;6.07;1.92;;;;;;;;;;5038565;28;20040;-78
2023/08/28 08:41:34;;;;;;;5.97;1.70;;;;;;;;;;5020585;28;20058;-78
2023/08/28 08:44:00;;;;;;;3.45;1.50;;;;;;;;;;5020327;28;20042;-78
2023/08/28 08:46:27;;;;;;;2.75;1.40;;;;;;;;;;5038242;28;20052;-78
2023/08/28 08:48:55;;;;;;;3.72;1.30;;;;;;;;;;5037217;28;20425;-78
2023/08/28 08:51:25;;;;;;;3.15;1.30;;;;;;;;;;5047459;28;20052;-79
2023/08/28 08:54:13;;;;;;;2.78;1.30;;;;;;;;;;5019252;28;20053;-79
2023/08/28 08:56:41;;;;;;;5.97;1.25;;;;;;;;;;5035015;28;20560;-79
2023/08/28 08:59:07;;;;;;;3.72;1.40;;;;;;;;;;5032670;28;20089;-79
2023/08/28 09:01:33;;;;;;;3.47;1.40;;;;;;;;;;5020157;28;20049;-79
2023/08/28 09:04:02;;;;;;;4.63;1.50;;;;;;;;;;5001004;28;20073;-80
2023/08/28 09:06:29;;;;;;;4.22;1.30;;;;;;;;;;5035479;28;20041;-79
2023/08/28 09:08:55;;;;;;;4.28;1.30;;;;;;;;;;5035044;28;20042;-79
2023/08/28 09:11:22;;;;;;;3.40;1.17;;;;;;;;;;5035153;28;20053;-79
2023/08/28 09:13:49;;;;;;;4.22;1.20;;;;;;;;;;5016915;28;20050;-79
2023/08/28 09:16:15;;;;;;;2.90;1.10;;;;;;;;;;5029028;28;20057;-79
2023/08/28 09:18:42;;;;;;;3.30;1.30;;;;;;;;;;5026178;28;20510;-79
2023/08/28 09:21:12;;;;;;;4.45;1.20;;;;;;;;;;5034677;28;20049;-79
2023/08/28 09:23:42;;;;;;;3.20;1.30;;;;;;;;;;5029793;28;20065;-79
2023/08/28 09:26:08;;;;;;;3.15;1.20;;;;;;;;;;5013715;28;20053;-80
2023/08/28 09:28:34;;;;;;;3.70;1.25;;;;;;;;;;5034854;28;20041;-78
2023/08/28 09:31:00;;;;;;;3.72;1.33;;;;;;;;;;5017265;28;20462;-79
2023/08/28 09:33:41;;;;;;;2.85;1.30;;;;;;;;;;5033938;28;20405;-79
2023/08/28 09:36:14;;;;;;;4.28;1.30;;;;;;;;;;5034083;28;20510;-78
2023/08/28 09:38:43;;;;;;;5.78;1.30;;;;;;;;;;5035409;28;20045;-79
2023/08/28 09:41:10;;;;;;;2.58;1.20;;;;;;;;;;5042794;28;20037;-78
2023/08/28 09:43:36;;;;;;;3.40;1.20;;;;;;;;;;5036784;28;20049;-79
2023/08/28 09:46:03;;;;;;;3.95;1.30;;;;;;;;;;5020035;28;20042;-79
2023/08/28 09:48:32;;;;;;;3.15;1.30;;;;;;;;;;4996747;28;20049;-79
2023/08/28 09:51:00;;;;;;;3.78;1.30;;;;;;;;;;5013674;28;20434;-78
2023/08/28 09:53:27;;;;;;;3.33;1.30;;;;;;;;;;5010555;28;20089;-79
2023/08/28 09:55:53;;;;;;;3.08;1.30;;;;;;;;;;5033633;28;20050;-78
2023/08/28 09:58:23;;;;;;;2.80;1.40;;;;;;;;;;5033177;28;20103;-79
2023/08/28 10:00:50;;;;;;;3.67;1.20;;;;;;;;;;5035308;28;20049;-78
2023/08/28 10:03:16;;;;;;;2.70;1.30;;;;;;;;;;5033090;28;20523;-78
2023/08/28 10:05:44;;;;;;;2.83;1.30;;;;;;;;;;5034933;28;20229;-78
2023/08/28 10:08:10;;;;;;;2.47;1.20;;;;;;;;;;5022665;28;20124;-78
2023/08/28 10:10:38;;;;;;;2.03;1.17;;;;;;;;;;5034569;28;20044;-79
2023/08/28 10:13:08;;;;;;;3.08;1.30;;;;;;;;;;5014290;28;20049;-80
2023/08/28 10:15:37;;;;;;;3.88;1.30;;;;;;;;;;5032541;28;20045;-81
2023/08/28 10:18:21;;;;;;;2.92;1.20;;;;;;;;;;5031224;28;20053;-81
2023/08/28 10:20:47;;;;;;;5.68;1.30;;;;;;;;;;5014671;28;20065;-80
2023/08/28 10:23:14;;;;;;;2.83;1.20;;;;;;;;;;5031063;28;20180;-80
2023/08/28 10:25:42;;;;;;;2.80;1.40;;;;;;;;;;5031689;28;20064;-80
2023/08/28 10:28:08;;;;;;;4.22;1.38;;;;;;;;;;5013677;28;20088;-80
2023/08/28 10:30:35;;;;;;;2.97;1.20;;;;;;;;;;4993595;28;20061;-81
2023/08/28 10:33:03;;;;;;;3.08;1.17;;;;;;;;;;5012398;28;20053;-81
2023/08/28 10:35:31;;;;;;;4.40;1.30;;;;;;;;;;4991855;28;20053;-81
2023/08/28 10:37:57;;;;;;;5.85;1.50;;;;;;;;;;4995447;28;20046;-79
2023/08/28 10:40:23;;;;;;;3.53;1.42;;;;;;;;;;5013820;28;20100;-80
2023/08/28 10:42:50;;;;;;;3.75;1.48;;;;;;;;;;5029512;28;20510;-79
2023/08/28 10:45:16;;;;;;;3.08;1.58;;;;;;;;;;5033209;28;20047;-79
2023/08/28 10:47:49;;;;;;;2.97;1.40;;;;;;;;;;5015359;28;20060;-79
2023/08/28 10:50:15;;;;;;;3.35;1.45;;;;;;;;;;5033118;28;20381;-79
2023/08/28 10:52:41;;;;;;;4.35;1.20;;;;;;;;;;5013666;28;20103;-79
2023/08/28 10:55:09;;;;;;;5.50;1.50;;;;;;;;;;5033000;28;20045;-80
2023/08/28 10:57:40;;;;;;;4.05;1.50;;;;;;;;;;5033220;28;20100;-79
2023/08/28 11:00:16;;;;;;;5.50;1.70;;;;;;;;;;5031716;28;20053;-79
2023/08/28 11:03:02;;;;;;;4.68;1.55;;;;;;;;;;5031617;28;20084;-80
2023/08/28 11:05:28;;;;;;;2.80;1.30;;;;;;;;;;5013526;28;20509;-79
2023/08/28 11:07:57;;;;;;;2.35;1.30;;;;;;;;;;4995457;28;20050;-79
2023/08/28 11:10:25;;;;;;;3.80;1.40;;;;;;;;;;5013183;28;20045;-79
2023/08/28 11:13:05;;;;;;;4.72;1.50;;;;;;;;;;5011880;28;20128;-79
2023/08/28 11:15:36;;;;;;;4.22;1.30;;;;;;;;;;5012667;28;20376;-79
2023/08/28 11:18:20;;;;;;;4.53;1.48;;;;;;;;;;5012909;28;20052;-80
2023/08/28 11:21:12;;;;;;;3.35;1.23;;;;;;;;;;4995227;28;20046;-80
2023/08/28 11:23:42;;;;;;;1.88;1.10;;;;;;;;;;4990628;28;20104;-79
2023/08/28 11:26:29;;;;;;;3.97;1.30;;;;;;;;;;5013052;28;20049;-79
2023/08/28 11:28:55;;;;;;;3.83;1.30;;;;;;;;;;4993304;28;20042;-79
2023/08/28 11:31:33;;;;;;;5.15;1.63;;;;;;;;;;4993321;28;20089;-79
2023/08/28 11:33:59;;;;;;;7.00;1.88;;;;;;;;;;4992591;28;20047;-80
2023/08/28 11:36:25;;;;;;;3.38;1.50;;;;;;;;;;4991795;28;20085;-80
2023/08/28 11:38:54;;;;;;;3.15;1.52;;;;;;;;;;4991636;28;20433;-79
2023/08/28 11:41:21;;;;;;;4.85;1.85;;;;;;;;;;4993354;28;20042;-79
2023/08/28 11:43:47;;;;;;;4.45;1.50;;;;;;;;;;4975368;28;20065;-79
2023/08/28 11:46:13;;;;;;;3.42;1.30;;;;;;;;;;4991815;28;20058;-79
2023/08/28 11:48:48;;;;;;;3.42;1.60;;;;;;;;;;4989593;28;20411;-80
2023/08/28 11:51:14;;;;;;;4.65;1.50;;;;;;;;;;4957875;28;20039;-80
2023/08/28 11:53:41;;;;;;;3.08;1.30;;;;;;;;;;4990354;28;20050;-80
2023/08/28 11:56:08;;;;;;;3.38;1.10;;;;;;;;;;4993067;28;20050;-81
2023/08/28 11:58:36;;;;;;;3.38;1.38;;;;;;;;;;4992758;28;20050;-80
2023/08/28 12:01:05;;;;;;;3.70;1.30;;;;;;;;;;4975655;28;20042;-80
2023/08/28 12:03:32;;;;;;;3.05;1.40;;;;;;;;;;4992135;28;20113;-78
2023/08/28 12:06:04;;;;;;;4.72;1.50;;;;;;;;;;4975537;28;20122;-80
2023/08/28 12:08:30;;;;;;;1.88;1.30;;;;;;;;;;4992472;28;20093;-79
2023/08/28 12:10:58;;;;;;;7.30;1.35;;;;;;;;;;4975883;28;20043;-80
2023/08/28 12:13:24;;;;;;;2.45;1.20;;;;;;;;;;4993262;28;20272;-79
2023/08/28 12:15:50;;;;;;;2.33;1.10;;;;;;;;;;4993360;28;20376;-79
2023/08/28 12:18:16;;;;;;;4.50;1.25;;;;;;;;;;4991746;28;20050;-79
2023/08/28 12:20:43;;;;;;;4.20;1.25;;;;;;;;;;4991661;28;20458;-79
2023/08/28 12:23:12;;;;;;;2.47;1.10;;;;;;;;;;4990721;28;20051;-79
2023/08/28 12:25:41;;;;;;;2.65;1.25;;;;;;;;;;4993696;28;20130;-79
2023/08/28 12:28:08;;;;;;;2.72;1.25;;;;;;;;;;4990836;28;20065;-78
2023/08/28 12:30:35;;;;;;;3.03;1.35;;;;;;;;;;4978755;28;20053;-79
2023/08/28 12:33:05;;;;;;;2.72;1.30;;;;;;;;;;4994597;28;20050;-79
2023/08/28 12:35:41;;;;;;;1.88;1.08;;;;;;;;;;5008053;28;20049;-79
2023/08/28 12:38:08;;;;;;;3.28;1.25;;;;;;;;;;5015722;28;20057;-80
2023/08/28 12:40:40;;;;;;;3.45;1.30;;;;;;;;;;4997901;28;20388;-80
2023/08/28 12:43:10;;;;;;;3.15;1.20;;;;;;;;;;5014625;28;20058;-79
2023/08/28 12:45:36;;;;;;;2.58;1.20;;;;;;;;;;4980490;28;20054;-77
2023/08/28 12:48:02;;;;;;;2.33;1.10;;;;;;;;;;5013159;28;20056;-78
2023/08/28 12:50:28;;;;;;;3.88;1.10;;;;;;;;;;5012273;28;20077;-80
2023/08/28 12:52:55;;;;;;;3.25;1.27;;;;;;;;;;5013531;28;20049;-76
2023/08/28 12:55:21;;;;;;;4.32;1.50;;;;;;;;;;5015638;28;20044;-77
2023/08/28 12:57:47;;;;;;;2.63;1.30;;;;;;;;;;5015420;28;20060;-76
2023/08/28 13:00:14;;;;;;;5.85;1.40;;;;;;;;;;4996781;28;20053;-77
2023/08/28 13:02:43;;;;;;;1.67;0.98;;;;;;;;;;5013148;28;20058;-75
2023/08/28 13:05:09;;;;;;;2.63;1.35;;;;;;;;;;5029669;28;20054;-77
2023/08/28 13:07:35;;;;;;;4.10;1.40;;;;;;;;;;5033073;28;20045;-77
2023/08/28 13:10:01;;;;;;;2.03;1.10;;;;;;;;;;5015301;28;20045;-77
2023/08/28 13:12:27;;;;;;;1.52;0.98;;;;;;;;;;5014811;28;20128;-76
2023/08/28 13:14:53;;;;;;;2.80;1.33;;;;;;;;;;5033022;28;20053;-76
2023/08/28 13:17:19;;;;;;;1.85;1.00;;;;;;;;;;5017213;28;20046;-77
2023/08/28 13:19:45;;;;;;;3.10;1.30;;;;;;;;;;5035066;28;20048;-77
2023/08/28 13:22:11;;;;;;;2.83;1.27;;;;;;;;;;5016940;28;20045;-77
2023/08/28 13:24:37;;;;;;;2.33;1.15;;;;;;;;;;5039447;28;20037;-78
2023/08/28 13:27:03;;;;;;;2.63;1.20;;;;;;;;;;5037058;28;20179;-81
2023/08/28 13:29:30;;;;;;;3.80;1.40;;;;;;;;;;5034892;28;20053;-80
2023/08/28 13:31:56;;;;;;;2.75;1.25;;;;;;;;;;5019710;28;20147;-79
2023/08/28 13:34:22;;;;;;;2.42;1.13;;;;;;;;;;5036958;28;20113;-80
2023/08/28 13:36:48;;;;;;;2.45;1.20;;;;;;;;;;5034306;28;20041;-79
2023/08/28 13:39:14;;;;;;;1.60;1.02;;;;;;;;;;5016352;28;20037;-79
2023/08/28 13:41:40;;;;;;;2.58;1.10;;;;;;;;;;5034120;28;20120;-79
2023/08/28 13:44:07;;;;;;;2.45;1.20;;;;;;;;;;5034500;28;20052;-79
2023/08/28 13:46:33;;;;;;;2.80;1.27;;;;;;;;;;5034659;28;20075;-79
2023/08/28 13:48:59;;;;;;;2.13;1.25;;;;;;;;;;5034635;28;20045;-79
2023/08/28 13:51:25;;;;;;;3.47;1.00;;;;;;;;;;5015438;28;20049;-79
2023/08/28 13:53:51;;;;;;;3.53;1.38;;;;;;;;;;5033781;28;20132;-79
2023/08/28 13:56:17;;;;;;;1.30;1.08;;;;;;;;;;5034265;28;20403;-79
2023/08/28 13:58:46;;;;;;;3.42;1.50;;;;;;;;;;5031736;28;20053;-79
2023/08/28 14:01:12;;;;;;;2.72;1.17;;;;;;;;;;5016127;28;20060;-79
2023/08/28 14:03:38;;;;;;;1.73;1.10;;;;;;;;;;5030647;28;20058;-81
2023/08/28 14:06:05;;;;;;;4.10;1.42;;;;;;;;;;5031572;28;20049;-80
2023/08/28 14:08:35;;;;;;;2.95;1.23;;;;;;;;;;5031618;28;20355;-81
2023/08/28 14:11:11;;;;;;;2.10;1.30;;;;;;;;;;5029049;28;20054;-77
2023/08/28 14:13:37;;;;;;;3.00;1.35;;;;;;;;;;4994882;28;20041;-80
2023/08/28 14:16:04;;;;;;;4.03;1.30;;;;;;;;;;5031348;28;20092;-80
2023/08/28 14:18:31;;;;;;;2.05;1.10;;;;;;;;;;5030737;28;20046;-80
2023/08/28 14:20:57;;;;;;;2.75;1.45;;;;;;;;;;5030671;28;20057;-80
2023/08/28 14:23:23;;;;;;;3.38;1.40;;;;;;;;;;5010501;28;20060;-80
2023/08/28 14:25:52;;;;;;;4.10;1.40;;;;;;;;;;5028503;28;20056;-79
2023/08/28 14:28:19;;;;;;;2.97;1.30;;;;;;;;;;5009943;28;20207;-80
2023/08/28 14:30:45;;;;;;;2.10;1.20;;;;;;;;;;5011592;28;20057;-81
2023/08/28 14:33:11;;;;;;;2.45;1.13;;;;;;;;;;5029724;28;20441;-80
2023/08/28 14:35:42;;;;;;;4.97;1.20;;;;;;;;;;5011754;28;20485;-79
2023/08/28 14:38:08;;;;;;;3.78;1.50;;;;;;;;;;5030447;28;20061;-80
2023/08/28 14:40:36;;;;;;;3.30;1.30;;;;;;;;;;5012718;28;20047;-80
2023/08/28 14:43:03;;;;;;;2.83;1.30;;;;;;;;;;5029690;28;20041;-80